NOZ666 ENAT-ENKR
Flight info
| Callsign | NOZ666 |
|---|---|
| Flight time | N/A |
| Altitude | 19000 |
| Route | PEMEP DCT VADLA |
| Aircraft | B738/M-SDE2E3FGHIRWXY/LB1 |
Departure
| Time | N/A |
|---|---|
| Airport | Alta Airport (ENAT) |
Arrival
| Time | 2026-05-04 20:15 |
|---|---|
| Airport | Kirkenes Airport, Høybuktmoen (ENKR) |
| Time | Latitude | Longitude | Altitude | Speed | Heading |
|---|---|---|---|---|---|
| 2026-05-04 19:54 | 69.96910 | 25.07870 | 18571 ft | 412 kts | 99° |
| 2026-05-04 19:54 | 69.96514 | 25.16160 | 18583 ft | 424 kts | 99° |
| 2026-05-04 19:54 | 69.96099 | 25.24767 | 18590 ft | 433 kts | 99° |
| 2026-05-04 19:55 | 69.95677 | 25.33447 | 18579 ft | 432 kts | 99° |
| 2026-05-04 19:55 | 69.95255 | 25.42059 | 18568 ft | 427 kts | 100° |
| 2026-05-04 19:55 | 69.94831 | 25.50619 | 18567 ft | 425 kts | 100° |
| 2026-05-04 19:55 | 69.94404 | 25.59139 | 18579 ft | 425 kts | 100° |
| 2026-05-04 19:56 | 69.93972 | 25.67662 | 18577 ft | 425 kts | 100° |
| 2026-05-04 19:56 | 69.93535 | 25.76194 | 18580 ft | 427 kts | 100° |
| 2026-05-04 19:56 | 69.93093 | 25.84747 | 18577 ft | 428 kts | 100° |
| 2026-05-04 19:56 | 69.92645 | 25.93326 | 18575 ft | 429 kts | 100° |
| 2026-05-04 19:57 | 69.92339 | 25.99128 | 18553 ft | 429 kts | 100° |
| 2026-05-04 19:57 | 69.91885 | 26.07701 | 18566 ft | 429 kts | 100° |
| 2026-05-04 19:57 | 69.91425 | 26.16281 | 18566 ft | 429 kts | 101° |
| 2026-05-04 19:57 | 69.90902 | 26.24696 | 18564 ft | 428 kts | 103° |
| 2026-05-04 19:58 | 69.90278 | 26.33143 | 18574 ft | 427 kts | 104° |
| 2026-05-04 19:58 | 69.89616 | 26.41560 | 18577 ft | 426 kts | 105° |
| 2026-05-04 19:58 | 69.88945 | 26.49957 | 18586 ft | 426 kts | 105° |
| 2026-05-04 19:58 | 69.88277 | 26.58347 | 18569 ft | 426 kts | 104° |
| 2026-05-04 19:59 | 69.87612 | 26.66749 | 18566 ft | 425 kts | 104° |
| 2026-05-04 19:59 | 69.86957 | 26.75075 | 18036 ft | 418 kts | 104° |
| 2026-05-04 19:59 | 69.86317 | 26.83228 | 17382 ft | 411 kts | 104° |
| 2026-05-04 19:59 | 69.85686 | 26.91239 | 16728 ft | 403 kts | 104° |
| 2026-05-04 20:00 | 69.85065 | 26.99100 | 16086 ft | 397 kts | 104° |
| 2026-05-04 20:00 | 69.84457 | 27.06730 | 15456 ft | 391 kts | 104° |
| 2026-05-04 20:00 | 69.83847 | 27.14356 | 14831 ft | 386 kts | 104° |
| 2026-05-04 20:00 | 69.83239 | 27.21899 | 14197 ft | 382 kts | 104° |
| 2026-05-04 20:01 | 69.82631 | 27.29394 | 13562 ft | 383 kts | 104° |
| 2026-05-04 20:01 | 69.82019 | 27.36900 | 12882 ft | 383 kts | 104° |
| 2026-05-04 20:01 | 69.81401 | 27.44436 | 12231 ft | 386 kts | 104° |
| 2026-05-04 20:01 | 69.80776 | 27.52006 | 11590 ft | 387 kts | 104° |
| 2026-05-04 20:02 | 69.80150 | 27.59551 | 10951 ft | 383 kts | 104° |
| 2026-05-04 20:02 | 69.79534 | 27.66945 | 10614 ft | 370 kts | 105° |
| 2026-05-04 20:02 | 69.78943 | 27.74013 | 10433 ft | 355 kts | 105° |
| 2026-05-04 20:02 | 69.78373 | 27.80788 | 10305 ft | 340 kts | 105° |
| 2026-05-04 20:03 | 69.77822 | 27.87298 | 10161 ft | 327 kts | 105° |
| 2026-05-04 20:03 | 69.77289 | 27.93565 | 10024 ft | 315 kts | 105° |
| 2026-05-04 20:03 | 69.76770 | 27.99633 | 9895 ft | 304 kts | 105° |
| 2026-05-04 20:03 | 69.76265 | 28.05508 | 9647 ft | 299 kts | 106° |
| 2026-05-04 20:04 | 69.75772 | 28.11217 | 9400 ft | 293 kts | 107° |
| 2026-05-04 20:04 | 69.75281 | 28.16883 | 9119 ft | 288 kts | 107° |
| 2026-05-04 20:04 | 69.74797 | 28.22449 | 8840 ft | 284 kts | 107° |
| 2026-05-04 20:04 | 69.74317 | 28.27941 | 8564 ft | 280 kts | 107° |
| 2026-05-04 20:05 | 69.73842 | 28.33352 | 8293 ft | 276 kts | 107° |
| 2026-05-04 20:05 | 69.73373 | 28.38678 | 8020 ft | 272 kts | 107° |
| 2026-05-04 20:05 | 69.72907 | 28.43943 | 7751 ft | 269 kts | 107° |
| 2026-05-04 20:05 | 69.72447 | 28.49134 | 7471 ft | 266 kts | 106° |
| 2026-05-04 20:06 | 69.71988 | 28.54283 | 7217 ft | 264 kts | 106° |
| 2026-05-04 20:06 | 69.71534 | 28.59364 | 6955 ft | 261 kts | 106° |
| 2026-05-04 20:06 | 69.71085 | 28.64371 | 6827 ft | 250 kts | 107° |
| 2026-05-04 20:06 | 69.70668 | 28.69026 | 6719 ft | 236 kts | 107° |
| 2026-05-04 20:07 | 69.70268 | 28.73464 | 6609 ft | 222 kts | 107° |
| 2026-05-04 20:07 | 69.69889 | 28.77657 | 6491 ft | 211 kts | 107° |
| 2026-05-04 20:07 | 69.69511 | 28.81798 | 6244 ft | 220 kts | 107° |
| 2026-05-04 20:07 | 69.69109 | 28.86185 | 6017 ft | 232 kts | 107° |
| 2026-05-04 20:08 | 69.68691 | 28.90754 | 5757 ft | 237 kts | 106° |
| 2026-05-04 20:08 | 69.68269 | 28.95356 | 5489 ft | 238 kts | 106° |
| 2026-05-04 20:08 | 69.67848 | 28.99939 | 5217 ft | 235 kts | 107° |
| 2026-05-04 20:08 | 69.67433 | 29.04444 | 4945 ft | 231 kts | 107° |
| 2026-05-04 20:09 | 69.67170 | 29.07299 | 4770 ft | 230 kts | 107° |
| 2026-05-04 20:09 | 69.66998 | 29.09166 | 4663 ft | 229 kts | 106° |
| 2026-05-04 20:09 | 69.66587 | 29.13601 | 4404 ft | 229 kts | 107° |
| 2026-05-04 20:10 | 69.66177 | 29.18007 | 4140 ft | 228 kts | 107° |
| 2026-05-04 20:10 | 69.65766 | 29.22393 | 3937 ft | 225 kts | 107° |
| 2026-05-04 20:10 | 69.65363 | 29.26684 | 3962 ft | 222 kts | 107° |
| 2026-05-04 20:10 | 69.64995 | 29.30983 | 3953 ft | 228 kts | 97° |
| 2026-05-04 20:11 | 69.65279 | 29.35489 | 3968 ft | 233 kts | 69° |
| 2026-05-04 20:11 | 69.65901 | 29.39808 | 3978 ft | 233 kts | 69° |
| 2026-05-04 20:11 | 69.66486 | 29.44011 | 3973 ft | 219 kts | 70° |
| 2026-05-04 20:11 | 69.67031 | 29.47990 | 3727 ft | 208 kts | 70° |
| 2026-05-04 20:12 | 69.67539 | 29.51716 | 3521 ft | 192 kts | 70° |
| 2026-05-04 20:12 | 69.68006 | 29.55156 | 3274 ft | 178 kts | 71° |
| 2026-05-04 20:12 | 69.68440 | 29.58361 | 3062 ft | 164 kts | 71° |
| 2026-05-04 20:12 | 69.68848 | 29.61398 | 2982 ft | 160 kts | 70° |
| 2026-05-04 20:13 | 69.69247 | 29.64346 | 2633 ft | 159 kts | 70° |
| 2026-05-04 20:13 | 69.69621 | 29.67099 | 2451 ft | 138 kts | 71° |
| 2026-05-04 20:13 | 69.69956 | 29.69558 | 2160 ft | 128 kts | 71° |
| 2026-05-04 20:13 | 69.70266 | 29.71902 | 1821 ft | 124 kts | 71° |
| 2026-05-04 20:14 | 69.70578 | 29.74308 | 1569 ft | 131 kts | 71° |
| 2026-05-04 20:14 | 69.70912 | 29.76772 | 1354 ft | 131 kts | 69° |
| 2026-05-04 20:14 | 69.71258 | 29.79265 | 1106 ft | 138 kts | 69° |
| 2026-05-04 20:14 | 69.71596 | 29.81840 | 828 ft | 137 kts | 70° |
| 2026-05-04 20:15 | 69.71929 | 29.84394 | 549 ft | 135 kts | 68° |
| 2026-05-04 20:15 | 69.72265 | 29.86892 | 325 ft | 131 kts | 69° |
| 2026-05-04 20:15 | 69.72561 | 29.89139 | 296 ft | 97 kts | 68° |
| 2026-05-04 20:15 | 69.72647 | 29.89874 | 292 ft | 19 kts | 78° |
| 2026-05-04 20:16 | 69.72664 | 29.89879 | 293 ft | 4 kts | 262° |
| 2026-05-04 20:16 | 69.72637 | 29.89701 | 298 ft | 16 kts | 245° |
| 2026-05-04 20:16 | 69.72589 | 29.89347 | 298 ft | 19 kts | 248° |
| 2026-05-04 20:16 | 69.72540 | 29.88993 | 298 ft | 19 kts | 248° |
| 2026-05-04 20:17 | 69.72490 | 29.88643 | 295 ft | 19 kts | 248° |
| 2026-05-04 20:17 | 69.72398 | 29.88444 | 298 ft | 18 kts | 157° |
| 2026-05-04 20:17 | 69.72300 | 29.88459 | 296 ft | 13 kts | 224° |
| 2026-05-04 20:17 | 69.72269 | 29.88309 | 296 ft | 2 kts | 226° |
| 2026-05-04 20:18 | 69.72255 | 29.88293 | 294 ft | 2 kts | 193° |
| 2026-05-04 20:18 | 69.72236 | 29.88312 | 296 ft | 5 kts | 154° |
| 2026-05-04 20:18 | 69.72209 | 29.88342 | 295 ft | 0 kts | 160° |